Time;durP1;ratioP1;P1;durP2;ratioP2;P2;SDS_P1;SDS_P2;PMS_P1;PMS_P2;Temp;Humidity;BMP_temperature;BMP_pressure;BME280_temperature;BME280_humidity;BME280_pressure;Samples;Min_cycle;Max_cycle;Signal;HPM_P1;HPM_P2
2023/02/15 00:01:52;;;;;;;17.70;14.10;;;8.00;53.20;;;;;;5013010;28;20198;-50
2023/02/15 00:04:22;;;;;;;22.60;14.70;;;8.00;53.20;;;;;;5029945;28;20235;-48
2023/02/15 00:06:48;;;;;;;17.80;13.77;;;8.00;53.30;;;;;;5026346;28;20477;-48
2023/02/15 00:09:14;;;;;;;19.93;14.67;;;8.00;53.30;;;;;;5011492;28;20460;-49
2023/02/15 00:11:40;;;;;;;19.73;13.07;;;7.90;53.30;;;;;;5020060;28;20233;-49
2023/02/15 00:14:11;;;;;;;21.10;13.40;;;7.90;53.40;;;;;;5019771;28;20439;-50
2023/02/15 00:16:37;;;;;;;13.37;10.70;;;7.90;53.40;;;;;;5015982;28;20453;-51
2023/02/15 00:19:03;;;;;;;16.70;12.90;;;7.80;53.50;;;;;;5021464;28;20931;-50
2023/02/15 00:21:31;;;;;;;15.00;11.57;;;7.80;53.70;;;;;;5011785;28;20421;-49
2023/02/15 00:24:01;;;;;;;16.40;12.27;;;7.70;53.80;;;;;;5022064;28;20483;-50
2023/02/15 00:26:28;;;;;;;17.33;11.50;;;7.70;54.00;;;;;;5019227;28;20454;-49
2023/02/15 00:28:54;;;;;;;17.67;12.53;;;7.60;54.20;;;;;;5023688;28;20488;-52
2023/02/15 00:31:20;;;;;;;15.07;11.13;;;7.60;54.50;;;;;;5025619;28;20876;-49
2023/02/15 00:33:46;;;;;;;15.83;12.20;;;7.60;54.50;;;;;;5015076;28;20524;-49
2023/02/15 00:36:12;;;;;;;18.27;11.87;;;7.60;54.40;;;;;;5017960;28;20443;-51
2023/02/15 00:38:38;;;;;;;16.83;11.87;;;7.50;54.40;;;;;;5019932;28;20444;-51
2023/02/15 00:41:06;;;;;;;18.60;11.70;;;7.50;54.50;;;;;;5019641;28;20437;-48
2023/02/15 00:43:33;;;;;;;18.83;12.03;;;7.30;54.60;;;;;;5012668;28;20209;-49
2023/02/15 00:45:59;;;;;;;16.50;12.87;;;7.30;55.00;;;;;;5029446;28;20436;-49
2023/02/15 00:48:25;;;;;;;18.73;11.50;;;7.30;54.90;;;;;;5029940;28;20769;-49
2023/02/15 00:50:53;;;;;;;17.27;12.17;;;7.40;54.80;;;;;;5029064;28;20518;-49
2023/02/15 00:53:19;;;;;;;14.27;10.87;;;7.40;54.40;;;;;;5014250;28;20901;-50
2023/02/15 00:55:45;;;;;;;14.40;11.10;;;7.40;54.30;;;;;;5030675;28;20450;-50
2023/02/15 00:58:11;;;;;;;20.47;12.00;;;7.30;54.40;;;;;;5024354;28;20520;-49
2023/02/15 01:00:38;;;;;;;18.57;11.60;;;7.30;54.50;;;;;;5010963;28;20190;-48
2023/02/15 01:03:04;;;;;;;15.73;11.07;;;7.30;54.30;;;;;;5024467;28;20800;-48
2023/02/15 01:05:30;;;;;;;15.33;11.40;;;7.20;54.50;;;;;;5027624;28;20495;-49
2023/02/15 01:07:57;;;;;;;13.10;10.80;;;7.00;55.20;;;;;;5021055;28;20499;-49
2023/02/15 01:10:23;;;;;;;13.63;11.47;;;6.80;55.60;;;;;;5017882;28;20443;-50
2023/02/15 01:12:50;;;;;;;14.70;10.73;;;6.70;56.30;;;;;;5034333;28;20437;-49
2023/02/15 01:15:16;;;;;;;14.37;10.90;;;6.70;56.30;;;;;;5022011;28;20547;-48
2023/02/15 01:17:42;;;;;;;14.97;10.90;;;6.50;56.40;;;;;;5023736;28;20532;-50
2023/02/15 01:20:08;;;;;;;14.17;10.17;;;6.60;56.50;;;;;;5023489;28;20692;-48
2023/02/15 01:22:33;;;;;;;15.00;11.00;;;6.40;56.90;;;;;;5013914;28;20536;-49
2023/02/15 01:24:59;;;;;;;15.53;10.90;;;6.50;56.90;;;;;;5018426;28;20233;-50
2023/02/15 01:27:24;;;;;;;19.90;12.60;;;6.40;56.50;;;;;;5025208;28;20276;-49
2023/02/15 01:29:50;;;;;;;14.60;11.23;;;6.40;56.80;;;;;;5015334;28;20230;-49
2023/02/15 01:32:15;;;;;;;19.00;12.97;;;6.30;56.80;;;;;;5018008;28;20933;-48
2023/02/15 01:34:41;;;;;;;16.07;11.40;;;6.40;56.60;;;;;;5013506;28;20280;-52
2023/02/15 01:37:06;;;;;;;16.67;12.20;;;6.60;56.40;;;;;;5026486;28;20657;-49
2023/02/15 01:39:32;;;;;;;18.90;12.47;;;6.70;56.10;;;;;;5013981;28;20576;-53
2023/02/15 01:41:58;;;;;;;17.30;12.90;;;6.70;55.40;;;;;;5015763;28;20225;-52
2023/02/15 01:44:56;;;;;;;17.27;11.50;;;6.80;55.20;;;;;;5015552;28;20236;-52
2023/02/15 01:47:40;;;;;;;15.00;10.90;;;6.80;55.00;;;;;;5033472;28;20201;-50
2023/02/15 01:50:13;;;;;;;14.20;11.03;;;6.80;55.10;;;;;;5029137;28;20531;-52
2023/02/15 01:52:46;;;;;;;16.97;11.23;;;6.70;55.10;;;;;;5023253;28;20469;-53
2023/02/15 01:55:13;;;;;;;15.10;10.80;;;6.60;55.50;;;;;;5013988;28;20523;-52
2023/02/15 01:57:40;;;;;;;15.83;11.53;;;6.50;55.80;;;;;;5025436;28;20444;-52
2023/02/15 02:00:07;;;;;;;17.20;11.50;;;6.50;56.10;;;;;;5018290;28;20444;-52
2023/02/15 02:02:33;;;;;;;15.50;10.73;;;6.40;56.50;;;;;;5012271;28;20447;-51
2023/02/15 02:05:06;;;;;;;17.80;11.60;;;6.30;56.70;;;;;;5028605;28;20471;-49
2023/02/15 02:07:36;;;;;;;16.27;11.30;;;6.20;57.20;;;;;;5028984;28;20911;-52
2023/02/15 02:10:03;;;;;;;14.40;11.50;;;6.20;57.00;;;;;;5032011;28;20440;-52
2023/02/15 02:12:29;;;;;;;15.93;10.43;;;6.30;57.00;;;;;;5029508;28;20501;-51
2023/02/15 02:14:56;;;;;;;15.93;11.33;;;6.40;56.80;;;;;;5018955;28;20444;-51
2023/02/15 02:17:39;;;;;;;16.63;11.43;;;6.50;56.40;;;;;;5027141;28;20438;-52
2023/02/15 02:20:07;;;;;;;17.47;11.60;;;6.00;57.10;;;;;;5020210;28;20456;-50
2023/02/15 02:23:05;;;;;;;15.20;11.97;;;6.00;57.70;;;;;;5016263;28;20873;-52
2023/02/15 02:25:48;;;;;;;17.50;12.10;;;5.90;57.10;;;;;;5012152;28;20610;-52
2023/02/15 02:28:27;;;;;;;21.70;13.23;;;5.80;57.40;;;;;;5016579;28;20520;-48
2023/02/15 02:31:10;;;;;;;17.43;12.20;;;5.70;57.60;;;;;;5021887;28;20448;-51
2023/02/15 02:33:57;;;;;;;21.80;12.37;;;5.90;57.30;;;;;;5027393;28;20885;-50
2023/02/15 02:36:33;;;;;;;17.03;11.17;;;5.90;56.80;;;;;;5019161;28;20458;-49
2023/02/15 02:39:22;;;;;;;14.10;10.20;;;5.90;56.90;;;;;;5027072;28;21979;-51
2023/02/15 02:42:26;;;;;;;17.47;11.77;;;6.00;56.60;;;;;;5026356;28;20553;-51
2023/02/15 02:45:03;;;;;;;16.50;11.00;;;6.10;56.40;;;;;;5007113;28;21775;-52
2023/02/15 02:47:38;;;;;;;14.97;10.57;;;6.20;56.10;;;;;;5031717;28;20859;-52
2023/02/15 02:50:12;;;;;;;16.60;10.27;;;6.30;55.80;;;;;;5012934;28;20449;-52
2023/02/15 02:52:40;;;;;;;15.87;10.30;;;6.40;55.50;;;;;;5019524;28;20436;-50
2023/02/15 02:55:24;;;;;;;14.03;10.07;;;6.40;55.20;;;;;;5019302;28;20449;-52
2023/02/15 02:58:05;;;;;;;15.23;10.37;;;6.40;54.90;;;;;;5027530;28;20543;-48
2023/02/15 03:00:45;;;;;;;18.20;11.03;;;6.40;54.70;;;;;;5019054;28;20762;-49
2023/02/15 03:03:36;;;;;;;14.20;10.60;;;6.40;54.60;;;;;;5024584;28;20519;-52
2023/02/15 03:06:06;;;;;;;13.83;10.87;;;6.30;54.70;;;;;;5019633;28;20869;-50
2023/02/15 03:08:45;;;;;;;18.30;11.63;;;6.40;54.90;;;;;;5017957;28;20543;-51
2023/02/15 03:11:11;;;;;;;13.40;9.77;;;6.40;54.90;;;;;;5013804;28;20518;-51
2023/02/15 03:13:37;;;;;;;16.03;11.40;;;6.30;54.80;;;;;;5018981;28;20454;-49
2023/02/15 03:18:57;;;;;;;15.00;11.07;;;6.20;55.20;;;;;;5029347;28;20506;-52
2023/02/15 03:21:31;;;;;;;15.40;10.60;;;6.00;55.90;;;;;;5025203;28;20440;-52
2023/02/15 03:24:20;;;;;;;14.73;10.03;;;5.80;56.30;;;;;;5027183;28;20912;-52
2023/02/15 03:26:49;;;;;;;13.40;10.20;;;5.70;56.70;;;;;;5017186;28;20460;-49
2023/02/15 03:29:18;;;;;;;18.90;11.27;;;5.80;56.80;;;;;;5021203;28;20526;-48
2023/02/15 03:31:49;;;;;;;14.50;10.70;;;5.80;56.50;;;;;;5027407;28;20440;-48
2023/02/15 03:34:16;;;;;;;13.53;10.03;;;5.90;56.30;;;;;;5017787;28;20936;-52
2023/02/15 03:37:01;;;;;;;13.13;10.00;;;5.90;56.20;;;;;;5028633;28;20440;-56
2023/02/15 03:39:36;;;;;;;14.30;10.90;;;5.90;56.00;;;;;;5022503;28;20965;-53
2023/02/15 03:42:09;;;;;;;16.53;11.20;;;5.90;55.80;;;;;;5025070;28;20456;-50
2023/02/15 03:45:00;;;;;;;18.03;11.10;;;6.00;55.60;;;;;;5019127;28;20484;-50
2023/02/15 03:47:34;;;;;;;13.43;10.20;;;5.90;55.30;;;;;;5019342;28;20428;-49
2023/02/15 03:51:33;;;;;;;13.80;9.83;;;6.00;55.40;;;;;;5024848;28;20432;-51
2023/02/15 03:52:52;;;;;;;18.63;12.73;;;6.00;55.30;;;;;;5025441;28;20447;-52
2023/02/15 03:55:18;;;;;;;16.20;10.90;;;5.80;55.10;;;;;;5023861;28;20440;-49
2023/02/15 04:03:24;;;;;;;19.60;12.37;;;5.90;55.60;;;;;;5025239;28;20552;-51
2023/02/15 04:05:49;;;;;;;19.77;13.23;;;5.90;55.40;;;;;;5025787;28;20530;-52
2023/02/15 04:08:15;;;;;;;18.17;13.23;;;6.00;55.40;;;;;;5019662;28;20472;-49
2023/02/15 04:10:53;;;;;;;17.00;12.73;;;6.00;55.30;;;;;;5027676;28;20205;-50
2023/02/15 04:13:22;;;;;;;19.70;11.70;;;6.00;55.30;;;;;;5023607;28;20217;-49
2023/02/15 04:16:03;;;;;;;16.33;11.50;;;6.10;55.30;;;;;;5028223;28;20523;-50
2023/02/15 04:26:52;;;;;;;22.80;12.20;;;6.10;55.40;;;;;;5027301;28;20501;-49
2023/02/15 04:29:19;;;;;;;25.43;14.30;;;6.10;55.60;;;;;;5017161;28;20487;-50
2023/02/15 04:31:44;;;;;;;39.60;14.37;;;6.10;56.10;;;;;;5025981;28;20506;-50
2023/02/15 04:34:10;;;;;;;29.73;13.30;;;6.10;56.60;;;;;;5027041;28;20440;-50
2023/02/15 04:36:37;;;;;;;31.70;14.50;;;6.10;56.90;;;;;;5017767;28;20202;-50
2023/02/15 04:39:03;;;;;;;37.80;14.70;;;6.10;57.30;;;;;;5023793;28;20873;-49
2023/02/15 04:41:28;;;;;;;32.90;13.90;;;6.10;57.70;;;;;;5023648;28;20531;-50
2023/02/15 04:43:54;;;;;;;22.37;13.80;;;6.10;57.90;;;;;;5023225;28;20224;-50
2023/02/15 04:46:20;;;;;;;33.03;14.93;;;6.00;58.30;;;;;;5019602;28;20192;-49
2023/02/15 04:48:45;;;;;;;26.27;14.33;;;6.10;58.50;;;;;;5019715;28;20197;-49
2023/02/15 04:51:11;;;;;;;23.10;14.17;;;6.10;58.30;;;;;;5025217;28;20563;-50
2023/02/15 04:53:36;;;;;;;30.60;14.43;;;6.10;58.00;;;;;;5026993;28;20251;-53
2023/02/15 04:56:02;;;;;;;30.73;17.50;;;6.20;58.00;;;;;;5023775;28;20194;-50
2023/02/15 04:58:28;;;;;;;24.10;15.80;;;6.20;57.70;;;;;;5022191;28;20603;-50
2023/02/15 05:00:57;;;;;;;30.67;20.27;;;6.10;57.30;;;;;;5030428;28;20185;-50
2023/02/15 05:03:23;;;;;;;26.03;16.77;;;6.10;57.10;;;;;;5027382;28;20208;-52
2023/02/15 05:05:49;;;;;;;20.57;14.10;;;6.00;56.60;;;;;;5031976;28;20494;-50
2023/02/15 05:08:15;;;;;;;19.90;14.63;;;6.00;56.20;;;;;;5029481;28;20944;-50
2023/02/15 05:10:40;;;;;;;19.23;12.73;;;6.00;55.80;;;;;;5031924;28;20279;-49
2023/02/15 05:13:06;;;;;;;19.00;12.40;;;6.00;55.50;;;;;;5032380;28;20687;-49
2023/02/15 05:15:31;;;;;;;19.40;11.97;;;5.90;55.00;;;;;;5028892;28;20201;-52
2023/02/15 05:17:57;;;;;;;18.20;12.70;;;5.90;55.20;;;;;;5023945;28;20220;-49
2023/02/15 05:20:23;;;;;;;16.27;11.33;;;5.90;55.10;;;;;;5024488;28;20280;-49
2023/02/15 05:22:48;;;;;;;20.93;11.10;;;5.80;55.10;;;;;;5027473;28;20201;-49
2023/02/15 05:30:42;;;;;;;17.20;11.20;;;5.80;54.80;;;;;;5022856;28;20513;-50
2023/02/15 05:33:08;;;;;;;13.00;10.27;;;5.90;54.80;;;;;;5027490;28;20460;-51
2023/02/15 05:35:34;;;;;;;16.50;10.43;;;5.90;54.70;;;;;;5034686;28;20436;-50
2023/02/15 05:38:00;;;;;;;18.30;12.67;;;5.90;54.80;;;;;;5030726;28;20702;-53
2023/02/15 05:40:26;;;;;;;24.00;13.70;;;5.90;54.80;;;;;;5032517;28;20436;-49
2023/02/15 05:42:51;;;;;;;21.60;13.63;;;5.90;54.70;;;;;;5036962;28;20649;-50
2023/02/15 05:45:17;;;;;;;23.57;13.70;;;5.80;54.90;;;;;;5035309;28;20252;-53
2023/02/15 05:47:43;;;;;;;20.03;14.40;;;5.80;55.30;;;;;;5027964;28;20198;-49
2023/02/15 05:50:10;;;;;;;25.00;13.97;;;5.80;55.40;;;;;;5026112;28;20625;-49
2023/02/15 05:52:35;;;;;;;22.90;14.10;;;5.80;55.50;;;;;;5026719;28;20194;-49
2023/02/15 05:55:02;;;;;;;21.90;13.40;;;5.70;55.80;;;;;;5019562;28;20456;-49
2023/02/15 05:57:28;;;;;;;20.93;14.17;;;5.70;56.20;;;;;;5025370;28;20248;-50
2023/02/15 05:59:53;;;;;;;27.20;14.20;;;5.70;56.50;;;;;;5029828;28;20436;-50
2023/02/15 06:02:19;;;;;;;30.13;13.77;;;5.70;56.60;;;;;;5034765;28;20197;-49
2023/02/15 06:04:44;;;;;;;31.60;13.77;;;5.70;56.40;;;;;;5033117;28;20228;-52
2023/02/15 06:07:10;;;;;;;23.67;13.80;;;5.70;56.40;;;;;;5030146;28;20192;-49
2023/02/15 06:09:35;;;;;;;20.03;13.90;;;5.70;56.40;;;;;;5035600;28;20327;-49
2023/02/15 06:12:01;;;;;;;32.23;17.20;;;5.70;56.50;;;;;;5024683;28;20197;-50
2023/02/15 06:14:26;;;;;;;24.80;15.77;;;5.70;56.70;;;;;;5021792;28;20675;-50
2023/02/15 06:16:52;;;;;;;23.63;14.83;;;5.70;55.90;;;;;;5025627;28;20283;-50
2023/02/15 06:19:18;;;;;;;24.00;15.03;;;5.70;56.00;;;;;;5017084;28;20201;-49
2023/02/15 06:21:44;;;;;;;24.00;15.03;;;5.70;56.00;;;;;;5023333;28;20267;-50
2023/02/15 06:24:10;;;;;;;23.00;14.47;;;5.70;56.10;;;;;;5019078;28;20555;-49
2023/02/15 06:26:35;;;;;;;19.13;13.00;;;5.70;56.10;;;;;;5019364;28;20316;-50
2023/02/15 06:29:01;;;;;;;22.27;14.10;;;5.60;56.10;;;;;;5015275;28;20229;-49
2023/02/15 06:31:26;;;;;;;32.23;13.00;;;5.60;56.30;;;;;;5023054;28;20189;-49
2023/02/15 06:33:52;;;;;;;27.23;12.70;;;5.60;56.30;;;;;;5019197;28;20216;-50
2023/02/15 06:36:17;;;;;;;20.90;14.20;;;5.70;56.30;;;;;;5023996;28;20269;-50
2023/02/15 06:38:43;;;;;;;18.60;12.00;;;5.90;58.50;;;;;;5026151;28;20964;-51
2023/02/15 06:41:09;;;;;;;17.70;11.90;;;6.30;59.10;;;;;;5022863;28;20197;-51
2023/02/15 06:43:34;;;;;;;19.60;13.13;;;6.60;58.80;;;;;;5030240;28;20189;-50
2023/02/15 06:46:00;;;;;;;23.53;13.67;;;6.80;57.10;;;;;;5024102;28;20222;-53
2023/02/15 06:48:26;;;;;;;29.67;13.43;;;7.20;56.70;;;;;;5020088;28;20215;-52
2023/02/15 06:50:52;;;;;;;31.03;13.73;;;7.30;55.50;;;;;;5025812;28;20443;-51
2023/02/15 06:53:17;;;;;;;20.50;12.83;;;7.40;54.80;;;;;;5030004;28;20452;-53
2023/02/15 06:55:44;;;;;;;29.87;13.83;;;7.60;54.60;;;;;;5027089;28;20455;-53
2023/02/15 06:58:15;;;;;;;17.90;12.73;;;7.70;54.20;;;;;;5027504;28;20194;-53
2023/02/15 07:00:41;;;;;;;20.73;13.23;;;7.90;54.10;;;;;;5029180;28;20479;-50
2023/02/15 07:03:07;;;;;;;27.10;15.60;;;8.10;53.60;;;;;;5021329;28;20925;-54
2023/02/15 07:05:34;;;;;;;24.33;16.97;;;8.20;52.90;;;;;;5030839;28;20596;-53
2023/02/15 07:08:00;;;;;;;20.87;13.20;;;8.30;52.50;;;;;;5012657;28;21692;-51
2023/02/15 07:10:27;;;;;;;32.27;14.30;;;8.40;52.60;;;;;;5019354;28;20448;-51
2023/02/15 07:12:53;;;;;;;20.63;12.90;;;8.50;52.20;;;;;;5023322;28;20519;-51
2023/02/15 07:15:20;;;;;;;20.57;13.37;;;8.50;51.60;;;;;;5020973;28;20955;-52
2023/02/15 07:17:46;;;;;;;20.37;12.47;;;8.60;51.30;;;;;;5028549;28;20547;-54
2023/02/15 07:20:16;;;;;;;28.27;12.33;;;8.60;51.20;;;;;;5029158;28;20466;-51
2023/02/15 07:22:42;;;;;;;19.50;13.70;;;8.70;50.80;;;;;;5026354;28;20444;-50
2023/02/15 07:25:09;;;;;;;24.77;14.60;;;8.70;50.40;;;;;;5011514;28;20854;-54
2023/02/15 07:27:35;;;;;;;17.50;12.67;;;8.80;50.40;;;;;;5026089;28;20463;-50
2023/02/15 07:30:01;;;;;;;20.13;13.37;;;8.80;50.50;;;;;;5016417;28;20475;-50
2023/02/15 07:32:31;;;;;;;16.87;13.27;;;8.90;50.50;;;;;;5030358;28;21243;-53
2023/02/15 07:34:57;;;;;;;17.80;11.73;;;9.00;49.90;;;;;;5024673;28;20189;-53
2023/02/15 07:37:23;;;;;;;19.80;11.13;;;9.10;49.60;;;;;;5026330;28;20472;-53
2023/02/15 07:39:48;;;;;;;15.13;11.87;;;9.10;49.20;;;;;;5011934;28;20444;-53
2023/02/15 07:42:14;;;;;;;15.10;10.80;;;9.20;48.90;;;;;;5024415;28;20194;-52
2023/02/15 07:44:39;;;;;;;19.00;11.83;;;9.20;48.90;;;;;;5029263;28;20225;-52
2023/02/15 07:47:05;;;;;;;23.60;11.67;;;9.30;49.10;;;;;;5026258;28;20221;-52
2023/02/15 07:49:31;;;;;;;28.60;13.97;;;9.20;48.40;;;;;;5025565;28;20656;-53
2023/02/15 07:51:56;;;;;;;19.63;15.20;;;9.20;48.50;;;;;;5026738;28;20221;-53
2023/02/15 07:54:22;;;;;;;19.10;13.53;;;9.10;48.90;;;;;;5021351;28;20193;-52
2023/02/15 07:56:47;;;;;;;20.27;13.73;;;9.10;48.80;;;;;;5025822;28;20626;-53
2023/02/15 07:59:13;;;;;;;29.80;15.23;;;9.10;48.90;;;;;;5024623;28;20197;-52
2023/02/15 08:01:39;;;;;;;21.10;14.83;;;9.10;48.60;;;;;;5026113;28;20551;-53
2023/02/15 08:04:06;;;;;;;22.20;14.00;;;9.00;48.30;;;;;;5027677;28;20271;-50
2023/02/15 08:06:35;;;;;;;32.03;15.20;;;8.90;48.70;;;;;;5026043;28;20483;-53
2023/02/15 08:09:05;;;;;;;24.50;13.87;;;8.90;48.70;;;;;;5028483;28;20531;-51
2023/02/15 08:11:33;;;;;;;18.70;13.10;;;8.80;49.00;;;;;;5023580;28;20476;-53
2023/02/15 08:14:32;;;;;;;21.13;14.00;;;8.80;49.80;;;;;;5018781;28;20436;-52
2023/02/15 08:17:02;;;;;;;22.73;14.97;;;8.90;49.90;;;;;;4986995;28;20451;-52
2023/02/15 08:19:31;;;;;;;25.17;15.90;;;8.90;49.40;;;;;;5027719;28;20459;-53
2023/02/15 08:22:05;;;;;;;18.93;13.83;;;9.00;49.60;;;;;;5018779;28;21027;-50
2023/02/15 08:24:34;;;;;;;21.10;16.00;;;9.10;49.70;;;;;;5012738;28;20573;-50
2023/02/15 08:27:02;;;;;;;23.10;15.47;;;9.20;49.30;;;;;;5024251;28;20440;-51
2023/02/15 08:29:29;;;;;;;22.47;14.80;;;9.30;49.40;;;;;;5015338;28;20512;-52
2023/02/15 08:32:04;;;;;;;19.30;15.30;;;9.20;49.30;;;;;;5028773;28;20454;-49
2023/02/15 08:34:32;;;;;;;20.60;13.43;;;9.10;49.30;;;;;;5020560;28;20480;-53
2023/02/15 08:36:57;;;;;;;19.67;13.13;;;9.10;49.60;;;;;;5025797;28;20506;-49
2023/02/15 08:39:23;;;;;;;17.23;12.53;;;9.00;49.60;;;;;;5028546;28;20922;-51
2023/02/15 08:41:49;;;;;;;19.03;13.47;;;8.90;49.40;;;;;;5026557;28;20280;-51
2023/02/15 08:44:17;;;;;;;18.23;12.30;;;9.00;50.00;;;;;;5025440;28;20562;-50
2023/02/15 08:46:44;;;;;;;19.50;14.10;;;9.00;50.30;;;;;;5024184;28;20197;-49
2023/02/15 08:49:13;;;;;;;20.33;14.53;;;9.00;49.80;;;;;;5020800;28;20826;-52
2023/02/15 08:51:39;;;;;;;24.10;16.13;;;9.00;50.20;;;;;;5029775;28;20432;-49
2023/02/15 08:54:08;;;;;;;21.97;14.60;;;9.00;50.40;;;;;;5030380;28;20440;-52
2023/02/15 08:56:37;;;;;;;17.93;13.10;;;9.00;50.40;;;;;;5018127;28;20447;-50
2023/02/15 08:59:03;;;;;;;19.90;15.20;;;8.90;50.20;;;;;;5028095;28;20522;-49
2023/02/15 09:01:32;;;;;;;19.20;13.77;;;8.70;50.10;;;;;;5029360;28;20440;-50
2023/02/15 09:04:04;;;;;;;19.63;13.50;;;8.50;50.40;;;;;;5026100;28;21015;-50
2023/02/15 09:06:30;;;;;;;18.67;13.90;;;8.50;50.50;;;;;;5021306;28;20449;-50
2023/02/15 09:08:56;;;;;;;17.23;13.93;;;8.40;50.70;;;;;;5024419;28;20447;-53
2023/02/15 09:11:30;;;;;;;24.40;15.20;;;8.40;51.00;;;;;;5023632;28;20550;-50
2023/02/15 09:14:01;;;;;;;16.60;13.50;;;8.50;51.00;;;;;;5008205;28;20530;-49
2023/02/15 09:16:29;;;;;;;19.53;14.70;;;8.50;51.00;;;;;;5023261;28;20451;-51
2023/02/15 09:18:57;;;;;;;18.07;14.20;;;8.60;51.10;;;;;;5018237;28;20447;-52
2023/02/15 09:21:23;;;;;;;20.63;13.73;;;8.60;50.90;;;;;;5021219;28;20498;-51
2023/02/15 09:23:51;;;;;;;15.43;12.97;;;8.70;51.00;;;;;;5024980;28;20527;-50
2023/02/15 09:26:21;;;;;;;21.20;12.53;;;8.80;51.50;;;;;;4998723;28;20476;-50
2023/02/15 09:28:48;;;;;;;17.87;13.90;;;8.90;51.50;;;;;;5025114;28;20847;-52
2023/02/15 09:31:22;;;;;;;17.73;13.57;;;8.90;51.10;;;;;;5025721;28;20443;-51
2023/02/15 09:33:49;;;;;;;17.73;13.70;;;8.90;51.10;;;;;;5023737;28;20446;-52
2023/02/15 09:36:15;;;;;;;21.53;12.63;;;9.00;50.90;;;;;;5027341;28;20487;-50
2023/02/15 09:38:40;;;;;;;15.47;12.10;;;9.00;50.90;;;;;;5022517;28;20488;-49
2023/02/15 09:41:25;;;;;;;20.73;13.70;;;9.10;51.00;;;;;;5008143;28;20205;-49
2023/02/15 09:44:09;;;;;;;18.10;11.10;;;9.10;51.00;;;;;;5018106;28;20657;-50
2023/02/15 09:46:59;;;;;;;16.63;12.53;;;9.20;50.90;;;;;;5016028;28;20522;-51
2023/02/15 09:49:49;;;;;;;17.40;12.20;;;9.10;50.80;;;;;;5021155;28;20459;-52
2023/02/15 09:52:23;;;;;;;17.47;12.00;;;9.30;50.90;;;;;;5022553;28;20452;-51
2023/02/15 09:55:01;;;;;;;17.83;12.47;;;9.50;50.90;;;;;;5027321;28;20800;-52
2023/02/15 09:57:46;;;;;;;19.90;12.83;;;9.60;51.20;;;;;;5007794;28;20463;-52
2023/02/15 10:00:49;;;;;;;18.30;13.00;;;9.90;51.10;;;;;;5030440;28;20447;-49
2023/02/15 10:03:30;;;;;;;15.37;12.10;;;10.00;49.60;;;;;;5042051;28;20964;-54
2023/02/15 10:06:16;;;;;;;18.80;14.20;;;10.10;49.00;;;;;;5028580;28;20475;-54
2023/02/15 10:08:51;;;;;;;16.47;14.10;;;10.30;48.40;;;;;;5023783;28;20447;-51
2023/02/15 10:11:41;;;;;;;19.10;13.50;;;10.50;48.50;;;;;;5016614;28;20483;-53
2023/02/15 10:14:09;;;;;;;17.77;12.37;;;10.60;48.30;;;;;;5016469;28;20995;-51
2023/02/15 10:16:53;;;;;;;17.47;13.37;;;10.80;47.50;;;;;;5033764;28;20428;-51
2023/02/15 10:19:19;;;;;;;16.30;13.90;;;10.90;47.90;;;;;;5028556;28;20438;-54
2023/02/15 10:22:08;;;;;;;18.10;13.83;;;11.20;47.30;;;;;;5033551;28;20523;-53
2023/02/15 10:24:39;;;;;;;18.80;14.70;;;11.50;46.90;;;;;;5032617;28;20691;-52
2023/02/15 10:27:12;;;;;;;23.30;16.73;;;11.70;46.40;;;;;;5020085;28;20780;-54
2023/02/15 10:29:43;;;;;;;17.63;14.03;;;11.80;46.30;;;;;;5021125;28;21017;-55
2023/02/15 10:32:29;;;;;;;20.20;15.60;;;11.80;46.40;;;;;;5030646;28;20448;-55
2023/02/15 10:35:02;;;;;;;18.57;14.97;;;12.00;46.40;;;;;;5024801;28;20818;-55
2023/02/15 10:37:55;;;;;;;21.50;16.23;;;12.20;46.10;;;;;;5014726;28;20452;-54
2023/02/15 10:40:36;;;;;;;22.10;15.07;;;12.30;45.80;;;;;;5025981;28;20544;-54
2023/02/15 10:43:27;;;;;;;19.20;15.40;;;12.30;45.60;;;;;;5020942;28;20449;-53
2023/02/15 10:45:57;;;;;;;18.60;14.67;;;12.40;46.00;;;;;;5014700;28;20592;-54
2023/02/15 10:48:34;;;;;;;18.27;16.37;;;12.60;46.10;;;;;;5017602;28;20498;-54
2023/02/15 10:51:05;;;;;;;23.63;16.53;;;12.70;45.70;;;;;;5015821;28;20451;-55
2023/02/15 10:53:30;;;;;;;16.70;14.20;;;12.90;46.20;;;;;;5028703;28;20463;-55
2023/02/15 10:56:14;;;;;;;20.23;15.77;;;13.00;45.70;;;;;;5024374;28;20448;-54
2023/02/15 10:59:04;;;;;;;17.00;15.10;;;13.20;45.60;;;;;;5012429;28;20202;-53
2023/02/15 11:01:38;;;;;;;18.63;15.83;;;13.30;45.90;;;;;;5000668;28;20452;-54
2023/02/15 11:04:28;;;;;;;19.73;15.53;;;13.50;45.50;;;;;;5032633;28;20448;-55
2023/02/15 11:06:59;;;;;;;17.33;13.50;;;13.70;45.60;;;;;;5013743;28;20447;-54
2023/02/15 11:09:29;;;;;;;24.13;15.30;;;13.90;45.20;;;;;;5012968;28;20847;-54
2023/02/15 11:11:59;;;;;;;20.37;16.27;;;14.00;45.00;;;;;;5013254;28;20954;-55
2023/02/15 11:14:50;;;;;;;18.23;15.73;;;14.10;45.60;;;;;;5030937;28;20468;-54
2023/02/15 11:17:22;;;;;;;19.53;15.10;;;14.20;44.60;;;;;;5029340;28;20527;-54
2023/02/15 11:19:54;;;;;;;25.97;14.37;;;14.30;44.50;;;;;;5032534;28;20783;-55
2023/02/15 11:22:20;;;;;;;28.20;15.50;;;14.40;44.40;;;;;;5020355;28;20930;-54
2023/02/15 11:24:46;;;;;;;19.90;14.67;;;14.50;44.30;;;;;;5032537;28;20575;-55
2023/02/15 11:27:12;;;;;;;17.60;14.10;;;14.50;44.90;;;;;;5031201;28;20442;-54
2023/02/15 11:29:40;;;;;;;17.70;14.93;;;14.50;44.40;;;;;;5030775;28;20475;-55
2023/02/15 11:32:40;;;;;;;16.17;13.80;;;14.70;43.60;;;;;;5030755;28;20657;-55
2023/02/15 11:35:09;;;;;;;17.87;15.30;;;14.80;43.80;;;;;;5030723;28;20452;-54
2023/02/15 11:37:57;;;;;;;21.70;15.10;;;14.90;43.20;;;;;;5025364;28;20852;-55
2023/02/15 11:40:27;;;;;;;20.17;13.70;;;15.00;42.90;;;;;;5021869;28;20452;-55
2023/02/15 11:42:58;;;;;;;18.37;14.47;;;15.10;43.00;;;;;;5012687;28;20429;-56
2023/02/15 11:45:34;;;;;;;16.53;14.77;;;15.10;43.30;;;;;;5026648;28;20500;-57
2023/02/15 11:48:01;;;;;;;16.43;14.60;;;15.10;43.80;;;;;;5011678;28;20448;-54
2023/02/15 11:50:31;;;;;;;16.47;14.47;;;15.20;44.20;;;;;;5013374;28;20452;-55
2023/02/15 11:53:06;;;;;;;17.17;14.50;;;15.20;44.20;;;;;;5012284;28;20428;-55
2023/02/15 11:55:34;;;;;;;15.60;13.80;;;15.30;43.80;;;;;;5026053;28;20447;-56
2023/02/15 11:58:04;;;;;;;16.93;13.57;;;15.30;44.70;;;;;;5031201;28;20474;-54
2023/02/15 12:00:35;;;;;;;15.87;13.83;;;15.30;44.50;;;;;;5023238;28;20466;-55
2023/02/15 12:03:14;;;;;;;16.57;13.63;;;15.30;44.40;;;;;;5012237;28;20440;-55
2023/02/15 12:05:44;;;;;;;16.90;14.30;;;15.30;45.00;;;;;;5030175;28;20495;-56
2023/02/15 12:08:18;;;;;;;14.93;13.43;;;15.40;44.90;;;;;;5030351;28;20958;-56
2023/02/15 12:11:12;;;;;;;15.47;13.73;;;15.50;44.70;;;;;;5019711;28;20730;-55
2023/02/15 12:13:55;;;;;;;19.70;15.70;;;15.60;44.20;;;;;;5021746;28;20818;-54
2023/02/15 12:16:20;;;;;;;16.30;13.70;;;15.70;44.20;;;;;;5025161;28;20526;-56
2023/02/15 12:18:47;;;;;;;15.20;13.70;;;15.70;43.70;;;;;;5020014;28;21281;-55
2023/02/15 12:21:25;;;;;;;14.50;13.00;;;15.80;43.80;;;;;;5022266;28;20289;-55
2023/02/15 12:23:53;;;;;;;17.67;13.80;;;15.80;43.80;;;;;;5016658;28;20793;-55
2023/02/15 12:26:36;;;;;;;16.73;14.93;;;15.90;43.80;;;;;;5024195;28;20539;-56
2023/02/15 12:29:13;;;;;;;18.17;13.97;;;15.80;43.80;;;;;;5025106;28;20574;-55
2023/02/15 12:31:43;;;;;;;17.50;15.07;;;15.80;43.80;;;;;;5026613;28;21038;-55
2023/02/15 12:34:34;;;;;;;15.90;14.30;;;15.90;43.40;;;;;;5023545;28;20445;-56
2023/02/15 12:37:08;;;;;;;16.13;14.20;;;15.90;43.90;;;;;;5004847;28;20456;-55
2023/02/15 12:39:34;;;;;;;14.80;13.20;;;15.80;43.90;;;;;;5025314;28;20487;-55
2023/02/15 12:42:16;;;;;;;16.13;14.57;;;15.90;43.90;;;;;;5030880;28;20531;-58
2023/02/15 12:45:18;;;;;;;14.33;12.93;;;16.00;43.80;;;;;;5029217;28;20247;-51
2023/02/15 12:47:44;;;;;;;14.93;13.43;;;16.20;43.90;;;;;;5025642;28;20458;-53
2023/02/15 12:50:22;;;;;;;16.40;14.70;;;16.40;43.20;;;;;;5017879;28;20455;-53
2023/02/15 12:52:50;;;;;;;15.57;14.07;;;16.50;43.10;;;;;;5019580;28;20343;-51
2023/02/15 12:55:29;;;;;;;16.53;14.47;;;16.70;43.10;;;;;;5011348;28;20445;-49
2023/02/15 12:58:14;;;;;;;19.43;16.70;;;16.50;42.30;;;;;;5029965;28;20432;-49
2023/02/15 13:00:39;;;;;;;20.27;16.53;;;16.40;43.20;;;;;;5028121;28;20432;-52
2023/02/15 13:03:20;;;;;;;19.53;17.50;;;16.40;43.40;;;;;;5029966;28;20840;-52
2023/02/15 13:05:50;;;;;;;21.37;17.00;;;16.50;43.30;;;;;;5023795;28;20232;-51
2023/02/15 13:08:20;;;;;;;19.03;17.00;;;16.60;43.10;;;;;;5013202;28;20793;-52
2023/02/15 13:11:09;;;;;;;23.43;18.20;;;16.70;43.00;;;;;;5013774;28;20447;-50
2023/02/15 13:13:51;;;;;;;18.73;15.90;;;16.80;42.40;;;;;;5023147;28;20499;-52
2023/02/15 13:16:26;;;;;;;18.43;16.63;;;17.00;42.20;;;;;;5029603;28;20826;-52
2023/02/15 13:18:52;;;;;;;18.50;16.67;;;17.00;42.00;;;;;;5030087;28;20443;-52